sensor_id;sensor_type;location;lat;lon;timestamp;pressure;altitude;pressure_sealevel;temperature;humidity
69982;BME280;57319;56.274;43.980;2023-04-20T00:00:09;100439.19;;;6.85;52.23
69982;BME280;57319;56.274;43.980;2023-04-20T00:02:39;100443.47;;;6.85;52.32
69982;BME280;57319;56.274;43.980;2023-04-20T00:05:06;100435.75;;;6.82;52.13
69982;BME280;57319;56.274;43.980;2023-04-20T00:07:33;100445.91;;;6.78;52.16
69982;BME280;57319;56.274;43.980;2023-04-20T00:09:59;100437.38;;;6.76;52.62
69982;BME280;57319;56.274;43.980;2023-04-20T00:12:25;100439.03;;;6.73;53.10
69982;BME280;57319;56.274;43.980;2023-04-20T00:14:50;100435.63;;;6.72;52.77
69982;BME280;57319;56.274;43.980;2023-04-20T00:17:16;100445.81;;;6.69;53.19
69982;BME280;57319;56.274;43.980;2023-04-20T00:19:42;100445.78;;;6.68;53.40
69982;BME280;57319;56.274;43.980;2023-04-20T00:22:08;100441.38;;;6.57;53.20
69982;BME280;57319;56.274;43.980;2023-04-20T00:24:33;100448.97;;;6.53;53.65
69982;BME280;57319;56.274;43.980;2023-04-20T00:26:59;100439.53;;;6.47;53.81
69982;BME280;57319;56.274;43.980;2023-04-20T00:29:25;100435.22;;;6.44;54.00
69982;BME280;57319;56.274;43.980;2023-04-20T00:31:51;100436.06;;;6.43;54.00
69982;BME280;57319;56.274;43.980;2023-04-20T00:34:16;100433.38;;;6.37;54.25
69982;BME280;57319;56.274;43.980;2023-04-20T00:36:42;100428.22;;;6.33;54.22
69982;BME280;57319;56.274;43.980;2023-04-20T00:39:09;100432.41;;;6.29;54.73
69982;BME280;57319;56.274;43.980;2023-04-20T00:41:34;100426.44;;;6.28;54.67
69982;BME280;57319;56.274;43.980;2023-04-20T00:44:00;100437.50;;;6.27;54.82
69982;BME280;57319;56.274;43.980;2023-04-20T00:46:26;100436.63;;;6.24;54.85
69982;BME280;57319;56.274;43.980;2023-04-20T00:48:53;100442.59;;;6.26;55.31
69982;BME280;57319;56.274;43.980;2023-04-20T00:51:20;100436.66;;;6.28;55.10
69982;BME280;57319;56.274;43.980;2023-04-20T00:53:47;100432.41;;;6.29;55.21
69982;BME280;57319;56.274;43.980;2023-04-20T00:56:13;100435.84;;;6.30;55.28
69982;BME280;57319;56.274;43.980;2023-04-20T00:58:44;100437.50;;;6.27;55.40
69982;BME280;57319;56.274;43.980;2023-04-20T01:01:12;100429.84;;;6.29;55.52
69982;BME280;57319;56.274;43.980;2023-04-20T01:03:39;100431.53;;;6.27;55.44
69982;BME280;57319;56.274;43.980;2023-04-20T01:06:05;100416.19;;;6.27;55.56
69982;BME280;57319;56.274;43.980;2023-04-20T01:08:31;100424.75;;;6.29;55.75
69982;BME280;57319;56.274;43.980;2023-04-20T01:10:57;100427.28;;;6.29;55.57
69982;BME280;57319;56.274;43.980;2023-04-20T01:13:25;100422.22;;;6.31;55.56
69982;BME280;57319;56.274;43.980;2023-04-20T01:15:51;100420.50;;;6.30;56.03
69982;BME280;57319;56.274;43.980;2023-04-20T01:18:17;100417.94;;;6.30;56.07
69982;BME280;57319;56.274;43.980;2023-04-20T01:20:45;100417.84;;;6.25;56.23
69982;BME280;57319;56.274;43.980;2023-04-20T01:23:11;100411.03;;;6.24;56.24
69982;BME280;57319;56.274;43.980;2023-04-20T01:25:37;100407.56;;;6.19;56.32
69982;BME280;57319;56.274;43.980;2023-04-20T01:28:03;100406.69;;;6.18;56.53
69982;BME280;57319;56.274;43.980;2023-04-20T01:30:29;100408.34;;;6.16;56.48
69982;BME280;57319;56.274;43.980;2023-04-20T01:32:55;100406.66;;;6.17;56.62
69982;BME280;57319;56.274;43.980;2023-04-20T01:35:21;100401.59;;;6.18;56.59
69982;BME280;57319;56.274;43.980;2023-04-20T01:37:46;100408.31;;;6.13;56.97
69982;BME280;57319;56.274;43.980;2023-04-20T01:40:13;100403.13;;;6.08;57.01
69982;BME280;57319;56.274;43.980;2023-04-20T01:42:38;100397.94;;;6.04;57.03
69982;BME280;57319;56.274;43.980;2023-04-20T01:45:05;100402.19;;;6.03;57.05
69982;BME280;57319;56.274;43.980;2023-04-20T01:47:36;100402.88;;;5.96;57.33
69982;BME280;57319;56.274;43.980;2023-04-20T01:50:02;100403.66;;;5.92;57.49
69982;BME280;57319;56.274;43.980;2023-04-20T01:52:31;100400.19;;;5.87;57.72
69982;BME280;57319;56.274;43.980;2023-04-20T01:54:57;100401.03;;;5.87;57.60
69982;BME280;57319;56.274;43.980;2023-04-20T01:57:22;100398.50;;;5.87;57.69
69982;BME280;57319;56.274;43.980;2023-04-20T01:59:48;100401.81;;;5.83;58.11
69982;BME280;57319;56.274;43.980;2023-04-20T02:02:13;100399.22;;;5.78;58.12
69982;BME280;57319;56.274;43.980;2023-04-20T02:04:39;100401.63;;;5.72;58.33
69982;BME280;57319;56.274;43.980;2023-04-20T02:07:05;100398.22;;;5.72;58.93
69982;BME280;57319;56.274;43.980;2023-04-20T02:09:30;100394.00;;;5.74;58.55
69982;BME280;57319;56.274;43.980;2023-04-20T02:11:56;100393.16;;;5.75;58.72
69982;BME280;57319;56.274;43.980;2023-04-20T02:14:22;100400.78;;;5.72;59.13
69982;BME280;57319;56.274;43.980;2023-04-20T02:16:48;100389.66;;;5.70;59.15
69982;BME280;57319;56.274;43.980;2023-04-20T02:19:14;100396.50;;;5.71;59.23
69982;BME280;57319;56.274;43.980;2023-04-20T02:21:40;100390.66;;;5.78;58.79
69982;BME280;57319;56.274;43.980;2023-04-20T02:24:07;100389.91;;;5.84;59.08
69982;BME280;57319;56.274;43.980;2023-04-20T02:26:32;100394.13;;;5.80;58.64
69982;BME280;57319;56.274;43.980;2023-04-20T02:28:58;100395.91;;;5.84;58.70
69982;BME280;57319;56.274;43.980;2023-04-20T02:31:24;100393.38;;;5.87;58.67
69982;BME280;57319;56.274;43.980;2023-04-20T02:33:49;100389.22;;;5.92;58.68
69982;BME280;57319;56.274;43.980;2023-04-20T02:36:15;100391.88;;;5.99;58.56
69982;BME280;57319;56.274;43.980;2023-04-20T02:38:41;100391.09;;;6.03;58.59
69982;BME280;57319;56.274;43.980;2023-04-20T02:41:07;100395.41;;;6.05;58.26
69982;BME280;57319;56.274;43.980;2023-04-20T02:43:32;100400.63;;;6.11;58.30
69982;BME280;57319;56.274;43.980;2023-04-20T02:46:00;100389.69;;;6.20;58.12
69982;BME280;57319;56.274;43.980;2023-04-20T02:48:26;100391.47;;;6.27;57.78
69982;BME280;57319;56.274;43.980;2023-04-20T02:50:54;100399.28;;;6.35;57.53
69982;BME280;57319;56.274;43.980;2023-04-20T02:53:20;100392.56;;;6.43;57.11
69982;BME280;57319;56.274;43.980;2023-04-20T02:55:46;100393.53;;;6.50;57.25
69982;BME280;57319;56.274;43.980;2023-04-20T02:58:12;100389.25;;;6.51;57.17
69982;BME280;57319;56.274;43.980;2023-04-20T03:00:38;100390.19;;;6.56;57.09
69982;BME280;57319;56.274;43.980;2023-04-20T03:03:04;100389.41;;;6.61;56.71
69982;BME280;57319;56.274;43.980;2023-04-20T03:05:29;100393.78;;;6.69;56.59
69982;BME280;57319;56.274;43.980;2023-04-20T03:07:55;100388.66;;;6.70;56.79
69982;BME280;57319;56.274;43.980;2023-04-20T03:10:21;100392.13;;;6.74;56.70
69982;BME280;57319;56.274;43.980;2023-04-20T03:12:46;100386.22;;;6.76;56.44
69982;BME280;57319;56.274;43.980;2023-04-20T03:15:12;100388.78;;;6.78;56.79
69982;BME280;57319;56.274;43.980;2023-04-20T03:17:38;100385.44;;;6.84;56.52
69982;BME280;57319;56.274;43.980;2023-04-20T03:20:04;100379.47;;;6.82;56.38
69982;BME280;57319;56.274;43.980;2023-04-20T03:22:30;100386.34;;;6.87;56.26
69982;BME280;57319;56.274;43.980;2023-04-20T03:24:56;100380.34;;;6.85;56.61
69982;BME280;57319;56.274;43.980;2023-04-20T03:27:21;100386.34;;;6.87;56.34
69982;BME280;57319;56.274;43.980;2023-04-20T03:29:47;100382.16;;;6.92;56.62
69982;BME280;57319;56.274;43.980;2023-04-20T03:32:13;100382.22;;;6.99;56.36
69982;BME280;57319;56.274;43.980;2023-04-20T03:34:38;100381.44;;;7.06;56.08
69982;BME280;57319;56.274;43.980;2023-04-20T03:37:04;100381.66;;;7.23;55.79
69982;BME280;57319;56.274;43.980;2023-04-20T03:39:30;100386.84;;;7.30;55.82
69982;BME280;57319;56.274;43.980;2023-04-20T03:41:55;100374.13;;;7.40;55.26
69982;BME280;57319;56.274;43.980;2023-04-20T03:44:21;100372.53;;;7.51;55.19
69982;BME280;57319;56.274;43.980;2023-04-20T03:46:47;100375.19;;;7.60;54.94
69982;BME280;57319;56.274;43.980;2023-04-20T03:49:13;100384.66;;;7.69;54.52
69982;BME280;57319;56.274;43.980;2023-04-20T03:51:38;100376.22;;;7.81;54.04
69982;BME280;57319;56.274;43.980;2023-04-20T03:54:04;100375.47;;;7.91;53.76
69982;BME280;57319;56.274;43.980;2023-04-20T03:56:30;100374.75;;;8.12;53.31
69982;BME280;57319;56.274;43.980;2023-04-20T03:58:56;100380.81;;;8.19;53.15
69982;BME280;57319;56.274;43.980;2023-04-20T04:01:22;100374.94;;;8.37;52.81
69982;BME280;57319;56.274;43.980;2023-04-20T04:03:47;100375.06;;;8.56;52.36
69982;BME280;57319;56.274;43.980;2023-04-20T04:06:13;100368.31;;;8.70;52.15
69982;BME280;57319;56.274;43.980;2023-04-20T04:08:39;100376.06;;;8.82;51.86
69982;BME280;57319;56.274;43.980;2023-04-20T04:11:04;100370.09;;;8.85;51.60
69982;BME280;57319;56.274;43.980;2023-04-20T04:13:30;100373.53;;;8.95;51.84
69982;BME280;57319;56.274;43.980;2023-04-20T04:15:56;100371.81;;;8.92;51.80
69982;BME280;57319;56.274;43.980;2023-04-20T04:18:21;100367.56;;;8.97;51.70
69982;BME280;57319;56.274;43.980;2023-04-20T04:20:47;100361.53;;;8.95;51.76
69982;BME280;57319;56.274;43.980;2023-04-20T04:23:13;100361.59;;;9.00;52.11
69982;BME280;57319;56.274;43.980;2023-04-20T04:25:39;100358.19;;;9.07;51.89
69982;BME280;57319;56.274;43.980;2023-04-20T04:28:05;100355.59;;;9.10;51.68
69982;BME280;57319;56.274;43.980;2023-04-20T04:30:31;100365.00;;;9.04;52.05
69982;BME280;57319;56.274;43.980;2023-04-20T04:32:57;100355.53;;;8.86;52.46
69982;BME280;57319;56.274;43.980;2023-04-20T04:35:24;100360.59;;;8.75;52.52
69982;BME280;57319;56.274;43.980;2023-04-20T04:37:50;100355.47;;;8.70;52.85
69982;BME280;57319;56.274;43.980;2023-04-20T04:40:17;100358.88;;;8.69;52.86
69982;BME280;57319;56.274;43.980;2023-04-20T04:42:43;100351.19;;;8.72;53.06
69982;BME280;57319;56.274;43.980;2023-04-20T04:45:10;100357.25;;;8.85;52.85
69982;BME280;57319;56.274;43.980;2023-04-20T04:47:37;100349.56;;;8.91;52.88
69982;BME280;57319;56.274;43.980;2023-04-20T04:50:05;100355.59;;;9.03;52.58
69982;BME280;57319;56.274;43.980;2023-04-20T04:52:32;100354.75;;;9.07;52.67
69982;BME280;57319;56.274;43.980;2023-04-20T04:54:59;100349.63;;;9.13;52.36
69982;BME280;57319;56.274;43.980;2023-04-20T04:57:25;100349.66;;;9.24;52.08
69982;BME280;57319;56.274;43.980;2023-04-20T04:59:51;100346.28;;;9.37;51.67
69982;BME280;57319;56.274;43.980;2023-04-20T05:02:17;100344.56;;;9.44;51.24
69982;BME280;57319;56.274;43.980;2023-04-20T05:04:43;100343.72;;;9.56;51.05
69982;BME280;57319;56.274;43.980;2023-04-20T05:07:08;100339.44;;;9.70;50.67
69982;BME280;57319;56.274;43.980;2023-04-20T05:09:38;100342.84;;;9.75;50.40
69982;BME280;57319;56.274;43.980;2023-04-20T05:12:05;100332.56;;;9.83;49.81
69982;BME280;57319;56.274;43.980;2023-04-20T05:14:31;100336.00;;;9.88;49.33
69982;BME280;57319;56.274;43.980;2023-04-20T05:17:00;100330.00;;;9.97;49.02
69982;BME280;57319;56.274;43.980;2023-04-20T05:19:26;100330.84;;;10.00;48.94
69982;BME280;57319;56.274;43.980;2023-04-20T05:21:52;100335.16;;;10.01;48.92
69982;BME280;57319;56.274;43.980;2023-04-20T05:24:18;100328.25;;;10.07;48.76
69982;BME280;57319;56.274;43.980;2023-04-20T05:26:44;100335.97;;;10.16;48.45
69982;BME280;57319;56.274;43.980;2023-04-20T05:29:14;100321.38;;;10.23;48.53
69982;BME280;57319;56.274;43.980;2023-04-20T05:31:40;100321.34;;;10.29;47.99
69982;BME280;57319;56.274;43.980;2023-04-20T05:34:05;100333.38;;;10.41;47.86
69982;BME280;57319;56.274;43.980;2023-04-20T05:36:31;100327.34;;;10.54;47.48
69982;BME280;57319;56.274;43.980;2023-04-20T05:38:58;100328.13;;;10.70;47.20
69982;BME280;57319;56.274;43.980;2023-04-20T05:41:24;100324.69;;;10.73;47.01
69982;BME280;57319;56.274;43.980;2023-04-20T05:43:52;100331.50;;;10.84;46.99
69982;BME280;57319;56.274;43.980;2023-04-20T05:46:19;100332.28;;;10.99;46.93
69982;BME280;57319;56.274;43.980;2023-04-20T05:48:45;100324.50;;;11.10;46.07
69982;BME280;57319;56.274;43.980;2023-04-20T05:51:11;100328.78;;;11.14;45.78
69982;BME280;57319;56.274;43.980;2023-04-20T05:53:36;100331.28;;;11.26;45.90
69982;BME280;57319;56.274;43.980;2023-04-20T05:56:02;100328.66;;;11.35;45.48
69982;BME280;57319;56.274;43.980;2023-04-20T05:58:31;100320.91;;;11.37;45.21
69982;BME280;57319;56.274;43.980;2023-04-20T06:00:57;100313.13;;;11.40;45.45
69982;BME280;57319;56.274;43.980;2023-04-20T06:03:23;100314.81;;;11.49;44.58
69982;BME280;57319;56.274;43.980;2023-04-20T06:05:48;100318.19;;;11.57;44.40
69982;BME280;57319;56.274;43.980;2023-04-20T06:08:14;100315.50;;;11.69;44.04
69982;BME280;57319;56.274;43.980;2023-04-20T06:10:40;100317.09;;;11.81;43.67
69982;BME280;57319;56.274;43.980;2023-04-20T06:13:05;100316.19;;;11.90;43.87
69982;BME280;57319;56.274;43.980;2023-04-20T06:15:31;100328.94;;;12.07;43.47
69982;BME280;57319;56.274;43.980;2023-04-20T06:17:57;100317.66;;;12.19;43.05
69982;BME280;57319;56.274;43.980;2023-04-20T06:20:23;100315.03;;;12.24;43.33
69982;BME280;57319;56.274;43.980;2023-04-20T06:22:48;100316.66;;;12.31;42.85
69982;BME280;57319;56.274;43.980;2023-04-20T06:25:14;100315.72;;;12.39;42.89
69982;BME280;57319;56.274;43.980;2023-04-20T06:27:41;100316.50;;;12.46;42.13
69982;BME280;57319;56.274;43.980;2023-04-20T06:30:07;100306.09;;;12.52;41.82
69982;BME280;57319;56.274;43.980;2023-04-20T06:32:34;100306.91;;;12.58;40.47
69982;BME280;57319;56.274;43.980;2023-04-20T06:35:00;100305.84;;;12.74;39.99
69982;BME280;57319;56.274;43.980;2023-04-20T06:37:25;100301.41;;;12.84;38.80
69982;BME280;57319;56.274;43.980;2023-04-20T06:39:55;100296.91;;;12.97;38.11
69982;BME280;57319;56.274;43.980;2023-04-20T06:42:21;100298.53;;;13.05;37.79
69982;BME280;57319;56.274;43.980;2023-04-20T06:44:47;100299.41;;;13.04;38.03
69982;BME280;57319;56.274;43.980;2023-04-20T06:47:12;100300.22;;;13.08;36.55
69982;BME280;57319;56.274;43.980;2023-04-20T06:49:38;100300.94;;;13.18;36.93
69982;BME280;57319;56.274;43.980;2023-04-20T06:52:05;100287.91;;;13.24;36.16
69982;BME280;57319;56.274;43.980;2023-04-20T06:54:31;100292.91;;;13.35;36.29
69982;BME280;57319;56.274;43.980;2023-04-20T06:56:57;100292.91;;;13.39;36.14
69982;BME280;57319;56.274;43.980;2023-04-20T06:59:23;100289.44;;;13.39;35.86
69982;BME280;57319;56.274;43.980;2023-04-20T07:01:49;100288.47;;;13.45;35.93
69982;BME280;57319;56.274;43.980;2023-04-20T07:04:15;100290.13;;;13.49;36.48
69982;BME280;57319;56.274;43.980;2023-04-20T07:06:40;100284.84;;;13.56;36.45
69982;BME280;57319;56.274;43.980;2023-04-20T07:09:06;100292.47;;;13.66;36.47
69982;BME280;57319;56.274;43.980;2023-04-20T07:11:33;100284.66;;;13.69;34.66
69982;BME280;57319;56.274;43.980;2023-04-20T07:13:58;100280.25;;;13.74;33.85
69982;BME280;57319;56.274;43.980;2023-04-20T07:16:24;100276.69;;;13.80;33.36
69982;BME280;57319;56.274;43.980;2023-04-20T07:18:50;100273.97;;;13.87;33.24
69982;BME280;57319;56.274;43.980;2023-04-20T07:21:15;100278.16;;;13.95;32.86
69982;BME280;57319;56.274;43.980;2023-04-20T07:23:41;100269.41;;;14.02;33.01
69982;BME280;57319;56.274;43.980;2023-04-20T07:26:07;100271.16;;;14.00;32.54
69982;BME280;57319;56.274;43.980;2023-04-20T07:28:33;100269.31;;;14.06;32.99
69982;BME280;57319;56.274;43.980;2023-04-20T07:30:58;100275.25;;;14.12;31.56
69982;BME280;57319;56.274;43.980;2023-04-20T07:33:24;100270.81;;;14.18;31.02
69982;BME280;57319;56.274;43.980;2023-04-20T07:35:51;100266.31;;;14.28;30.10
69982;BME280;57319;56.274;43.980;2023-04-20T07:38:16;100260.06;;;14.38;30.68
69982;BME280;57319;56.274;43.980;2023-04-20T07:40:42;100266.81;;;14.46;30.43
69982;BME280;57319;56.274;43.980;2023-04-20T07:43:07;100264.06;;;14.55;29.97
69982;BME280;57319;56.274;43.980;2023-04-20T07:45:33;100261.97;;;14.72;29.67
69982;BME280;57319;56.274;43.980;2023-04-20T07:47:59;100249.78;;;14.78;27.92
69982;BME280;57319;56.274;43.980;2023-04-20T07:50:27;100256.50;;;14.85;27.93
69982;BME280;57319;56.274;43.980;2023-04-20T07:52:53;100250.28;;;14.93;27.46
69982;BME280;57319;56.274;43.980;2023-04-20T07:55:19;100251.13;;;14.94;26.80
69982;BME280;57319;56.274;43.980;2023-04-20T07:57:45;100247.63;;;14.97;27.48
69982;BME280;57319;56.274;43.980;2023-04-20T08:00:11;100247.50;;;15.01;28.17
69982;BME280;57319;56.274;43.980;2023-04-20T08:02:37;100238.97;;;14.98;27.83
69982;BME280;57319;56.274;43.980;2023-04-20T08:05:04;100231.28;;;14.93;27.84
69982;BME280;57319;56.274;43.980;2023-04-20T08:07:31;100236.47;;;14.93;27.77
69982;BME280;57319;56.274;43.980;2023-04-20T08:09:56;100239.69;;;15.04;27.22
69982;BME280;57319;56.274;43.980;2023-04-20T08:12:22;100229.09;;;15.12;27.12
69982;BME280;57319;56.274;43.980;2023-04-20T08:14:48;100235.84;;;15.21;26.06
69982;BME280;57319;56.274;43.980;2023-04-20T08:17:14;100229.59;;;15.28;24.81
69982;BME280;57319;56.274;43.980;2023-04-20T08:19:39;100223.53;;;15.27;24.04
69982;BME280;57319;56.274;43.980;2023-04-20T08:22:05;100221.81;;;15.28;23.67
69982;BME280;57319;56.274;43.980;2023-04-20T08:24:31;100229.38;;;15.36;23.75
69982;BME280;57319;56.274;43.980;2023-04-20T08:26:57;100230.91;;;15.44;23.87
69982;BME280;57319;56.274;43.980;2023-04-20T08:29:24;100211.00;;;15.45;23.42
69982;BME280;57319;56.274;43.980;2023-04-20T08:31:50;100212.59;;;15.51;23.23
69982;BME280;57319;56.274;43.980;2023-04-20T08:34:16;100214.13;;;15.59;23.25
69982;BME280;57319;56.274;43.980;2023-04-20T08:36:42;100216.75;;;15.58;22.48
69982;BME280;57319;56.274;43.980;2023-04-20T08:39:11;100212.38;;;15.60;22.82
69982;BME280;57319;56.274;43.980;2023-04-20T08:41:37;100213.28;;;15.57;22.83
69982;BME280;57319;56.274;43.980;2023-04-20T08:44:03;100206.53;;;15.52;22.96
69982;BME280;57319;56.274;43.980;2023-04-20T08:46:29;100212.22;;;15.65;23.07
69982;BME280;57319;56.274;43.980;2023-04-20T08:48:55;100206.06;;;15.70;22.51
69982;BME280;57319;56.274;43.980;2023-04-20T08:51:22;100210.28;;;15.74;22.38
69982;BME280;57319;56.274;43.980;2023-04-20T08:53:49;100197.94;;;15.84;22.42
69982;BME280;57319;56.274;43.980;2023-04-20T08:56:14;100202.84;;;15.93;22.40
69982;BME280;57319;56.274;43.980;2023-04-20T08:58:40;100202.72;;;15.98;22.61
69982;BME280;57319;56.274;43.980;2023-04-20T09:01:10;100204.09;;;16.11;22.69
69982;BME280;57319;56.274;43.980;2023-04-20T09:03:40;100207.31;;;16.20;22.40
69982;BME280;57319;56.274;43.980;2023-04-20T09:06:16;100204.97;;;16.10;22.26
69982;BME280;57319;56.274;43.980;2023-04-20T09:08:43;100195.94;;;16.24;22.68
69982;BME280;57319;56.274;43.980;2023-04-20T09:11:39;100193.69;;;16.41;22.47
69982;BME280;57319;56.274;43.980;2023-04-20T09:14:07;100185.72;;;16.48;22.57
69982;BME280;57319;56.274;43.980;2023-04-20T09:16:54;100181.88;;;16.59;22.53
69982;BME280;57319;56.274;43.980;2023-04-20T09:19:29;100183.22;;;16.73;22.48
69982;BME280;57319;56.274;43.980;2023-04-20T09:21:57;100178.72;;;16.78;22.32
69982;BME280;57319;56.274;43.980;2023-04-20T09:24:31;100182.72;;;16.88;22.30
69982;BME280;57319;56.274;43.980;2023-04-20T09:26:57;100184.44;;;16.89;22.20
69982;BME280;57319;56.274;43.980;2023-04-20T09:29:23;100178.44;;;16.87;22.12
69982;BME280;57319;56.274;43.980;2023-04-20T09:31:50;100180.22;;;16.85;22.11
69982;BME280;57319;56.274;43.980;2023-04-20T09:34:17;100174.97;;;16.87;22.46
69982;BME280;57319;56.274;43.980;2023-04-20T09:36:45;100171.31;;;16.94;22.70
69982;BME280;57319;56.274;43.980;2023-04-20T09:39:13;100166.03;;;16.97;22.41
69982;BME280;57319;56.274;43.980;2023-04-20T09:41:40;100162.84;;;16.87;22.79
69982;BME280;57319;56.274;43.980;2023-04-20T09:44:07;100159.59;;;16.81;22.39
69982;BME280;57319;56.274;43.980;2023-04-20T09:46:34;100154.13;;;16.90;22.41
69982;BME280;57319;56.274;43.980;2023-04-20T09:49:03;100156.94;;;17.09;22.38
69982;BME280;57319;56.274;43.980;2023-04-20T09:51:30;100160.94;;;17.19;21.55
69982;BME280;57319;56.274;43.980;2023-04-20T09:53:58;100156.88;;;17.37;21.50
69982;BME280;57319;56.274;43.980;2023-04-20T09:56:26;100151.19;;;17.51;21.26
69982;BME280;57319;56.274;43.980;2023-04-20T09:58:53;100150.69;;;17.65;21.08
69982;BME280;57319;56.274;43.980;2023-04-20T10:01:20;100147.56;;;17.55;21.01
69982;BME280;57319;56.274;43.980;2023-04-20T10:03:47;100142.53;;;17.25;21.64
69982;BME280;57319;56.274;43.980;2023-04-20T10:06:21;100148.41;;;17.05;21.94
69982;BME280;57319;56.274;43.980;2023-04-20T10:08:48;100146.59;;;17.07;21.59
69982;BME280;57319;56.274;43.980;2023-04-20T10:11:28;100146.78;;;17.28;21.26
69982;BME280;57319;56.274;43.980;2023-04-20T10:13:55;100135.69;;;17.48;21.44
69982;BME280;57319;56.274;43.980;2023-04-20T10:16:21;100136.41;;;17.77;21.59
69982;BME280;57319;56.274;43.980;2023-04-20T10:19:02;100123.19;;;18.07;21.21
69982;BME280;57319;56.274;43.980;2023-04-20T10:21:29;100120.53;;;18.30;20.74
69982;BME280;57319;56.274;43.980;2023-04-20T10:23:59;100115.84;;;18.61;20.73
69982;BME280;57319;56.274;43.980;2023-04-20T10:26:39;100117.78;;;19.00;20.08
69982;BME280;57319;56.274;43.980;2023-04-20T10:29:05;100122.66;;;19.28;20.19
69982;BME280;57319;56.274;43.980;2023-04-20T10:31:40;100115.53;;;19.53;19.47
69982;BME280;57319;56.274;43.980;2023-04-20T10:34:08;100115.34;;;19.16;19.81
69982;BME280;57319;56.274;43.980;2023-04-20T10:36:36;100113.50;;;18.77;20.03
69982;BME280;57319;56.274;43.980;2023-04-20T10:39:19;100110.16;;;18.29;19.93
69982;BME280;57319;56.274;43.980;2023-04-20T10:41:53;100107.44;;;17.86;20.50
69982;BME280;57319;56.274;43.980;2023-04-20T10:44:21;100100.22;;;17.45;20.98
69982;BME280;57319;56.274;43.980;2023-04-20T10:46:48;100102.34;;;17.34;21.45
69982;BME280;57319;56.274;43.980;2023-04-20T10:49:14;100099.38;;;17.20;21.56
69982;BME280;57319;56.274;43.980;2023-04-20T10:51:49;100095.44;;;17.08;21.93
69982;BME280;57319;56.274;43.980;2023-04-20T10:54:16;100092.47;;;16.93;21.92
69982;BME280;57319;56.274;43.980;2023-04-20T10:56:42;100092.72;;;16.84;21.59
69982;BME280;57319;56.274;43.980;2023-04-20T10:59:10;100094.84;;;16.73;21.83
69982;BME280;57319;56.274;43.980;2023-04-20T11:01:36;100089.84;;;16.67;21.99
69982;BME280;57319;56.274;43.980;2023-04-20T11:04:03;100092.63;;;16.60;22.07
69982;BME280;57319;56.274;43.980;2023-04-20T11:06:29;100091.13;;;16.53;21.96
69982;BME280;57319;56.274;43.980;2023-04-20T11:08:56;100088.72;;;16.47;22.37
69982;BME280;57319;56.274;43.980;2023-04-20T11:11:24;100090.47;;;16.47;22.34
69982;BME280;57319;56.274;43.980;2023-04-20T11:14:13;100082.03;;;16.40;21.96
69982;BME280;57319;56.274;43.980;2023-04-20T11:16:38;100077.13;;;16.31;22.27
69982;BME280;57319;56.274;43.980;2023-04-20T11:19:04;100076.38;;;16.27;22.66
69982;BME280;57319;56.274;43.980;2023-04-20T11:21:40;100069.38;;;16.29;22.39
69982;BME280;57319;56.274;43.980;2023-04-20T11:24:27;100063.25;;;16.32;22.01
69982;BME280;57319;56.274;43.980;2023-04-20T11:26:54;100061.31;;;16.38;22.10
69982;BME280;57319;56.274;43.980;2023-04-20T11:31:59;100047.94;;;17.99;20.95
69982;BME280;57319;56.274;43.980;2023-04-20T11:34:25;100040.25;;;17.72;21.16
69982;BME280;57319;56.274;43.980;2023-04-20T11:36:51;100046.81;;;17.35;21.24
69982;BME280;57319;56.274;43.980;2023-04-20T11:39:26;100041.91;;;17.02;21.31
69982;BME280;57319;56.274;43.980;2023-04-20T11:41:52;100035.88;;;16.75;21.54
69982;BME280;57319;56.274;43.980;2023-04-20T11:44:19;100039.88;;;16.58;21.68
69982;BME280;57319;56.274;43.980;2023-04-20T11:46:46;100036.56;;;16.53;21.96
69982;BME280;57319;56.274;43.980;2023-04-20T11:49:15;100028.75;;;16.80;21.95
69982;BME280;57319;56.274;43.980;2023-04-20T11:51:41;100026.78;;;17.61;20.89
69982;BME280;57319;56.274;43.980;2023-04-20T11:54:08;100029.03;;;18.38;20.20
69982;BME280;57319;56.274;43.980;2023-04-20T11:56:34;100027.34;;;18.15;20.45
69982;BME280;57319;56.274;43.980;2023-04-20T11:59:00;100019.13;;;17.80;20.82
69982;BME280;57319;56.274;43.980;2023-04-20T12:01:26;100013.09;;;17.56;20.86
69982;BME280;57319;56.274;43.980;2023-04-20T12:03:51;100015.53;;;17.37;21.02
69982;BME280;57319;56.274;43.980;2023-04-20T12:06:20;100014.34;;;17.22;20.91
69982;BME280;57319;56.274;43.980;2023-04-20T12:08:46;100008.09;;;17.02;21.21
69982;BME280;57319;56.274;43.980;2023-04-20T12:11:13;99997.97;;;16.94;21.17
69982;BME280;57319;56.274;43.980;2023-04-20T12:13:42;100006.66;;;16.93;21.31
69982;BME280;57319;56.274;43.980;2023-04-20T12:16:07;99996.53;;;16.86;21.57
69982;BME280;57319;56.274;43.980;2023-04-20T12:18:33;99993.94;;;16.84;21.64
69982;BME280;57319;56.274;43.980;2023-04-20T12:20:59;99999.38;;;16.78;21.60
69982;BME280;57319;56.274;43.980;2023-04-20T12:23:25;99990.81;;;16.74;21.25
69982;BME280;57319;56.274;43.980;2023-04-20T12:25:51;99985.03;;;16.66;21.38
69982;BME280;57319;56.274;43.980;2023-04-20T12:28:17;99981.25;;;16.76;21.35
69982;BME280;57319;56.274;43.980;2023-04-20T12:30:43;99980.91;;;16.86;20.92
69982;BME280;57319;56.274;43.980;2023-04-20T12:33:09;99984.97;;;16.94;20.93
69982;BME280;57319;56.274;43.980;2023-04-20T12:35:35;99982.31;;;16.96;21.36
69982;BME280;57319;56.274;43.980;2023-04-20T12:38:00;99979.81;;;16.93;21.35
69982;BME280;57319;56.274;43.980;2023-04-20T12:40:26;99975.31;;;16.98;21.52
69982;BME280;57319;56.274;43.980;2023-04-20T12:42:52;99970.63;;;17.08;20.95
69982;BME280;57319;56.274;43.980;2023-04-20T12:45:18;99965.94;;;16.94;20.96